createdAt,value
2022-10-01T00:00:20.136Z,18.36
2022-10-01T00:02:50.062Z,18.16
2022-10-01T00:05:19.767Z,18.09
2022-10-01T00:07:49.864Z,18.08
2022-10-01T00:10:19.814Z,18.01
2022-10-01T00:12:50.112Z,17.98
2022-10-01T00:15:21.912Z,18.04
2022-10-01T00:17:51.712Z,17.93
2022-10-01T00:20:21.640Z,18.01
2022-10-01T00:22:52.390Z,17.76
2022-10-01T00:25:22.518Z,17.88
2022-10-01T00:27:52.647Z,17.89
2022-10-01T00:30:23.812Z,17.96
2022-10-01T00:32:54.656Z,17.98
2022-10-01T00:35:24.411Z,18.01
2022-10-01T00:37:54.148Z,18.14
2022-10-01T00:40:24.389Z,18.20
2022-10-01T00:42:54.037Z,18.05
2022-10-01T00:45:25.178Z,17.94
2022-10-01T00:47:57.384Z,17.90
2022-10-01T00:50:31.478Z,17.94
2022-10-01T00:53:03.565Z,17.86
2022-10-01T00:55:37.099Z,17.85
2022-10-01T00:58:08.758Z,17.75
2022-10-01T01:00:40.887Z,17.67
2022-10-01T01:03:12.188Z,17.73
2022-10-01T01:05:41.931Z,17.95
2022-10-01T01:08:12.132Z,17.73
2022-10-01T01:10:52.162Z,17.77
2022-10-01T01:13:31.672Z,17.76
2022-10-01T01:16:08.443Z,17.80
2022-10-01T01:18:44.398Z,17.73
2022-10-01T01:21:21.725Z,17.66
2022-10-01T01:24:12.781Z,17.31
2022-10-01T01:26:54.195Z,17.34
2022-10-01T01:29:28.381Z,17.58
2022-10-01T01:32:09.440Z,17.66
2022-10-01T01:34:44.568Z,17.35
2022-10-01T01:37:18.851Z,17.37
2022-10-01T01:39:53.869Z,17.25
2022-10-01T01:42:28.268Z,17.39
2022-10-01T01:45:03.933Z,17.37
2022-10-01T01:47:35.417Z,17.34
2022-10-01T01:50:07.614Z,17.22
2022-10-01T01:52:38.296Z,17.31
2022-10-01T01:55:09.844Z,17.27
2022-10-01T01:57:43.388Z,17.07
2022-10-01T02:00:15.106Z,17.17
2022-10-01T02:02:50.287Z,17.08
2022-10-01T02:05:23.578Z,16.94
2022-10-01T02:08:22.807Z,17.17
2022-10-01T02:11:15.891Z,16.82
2022-10-01T02:13:55.210Z,17.13
2022-10-01T02:16:34.360Z,17.13
2022-10-01T02:19:11.962Z,16.97
2022-10-01T02:21:43.050Z,16.91
2022-10-01T02:24:22.009Z,17.01
2022-10-01T02:26:54.586Z,16.88
2022-10-01T02:29:25.344Z,16.95
2022-10-01T02:31:58.421Z,16.88
2022-10-01T02:34:31.251Z,16.95
2022-10-01T02:37:05.862Z,16.96
2022-10-01T02:39:37.503Z,16.82
2022-10-01T02:42:09.213Z,16.86
2022-10-01T02:44:42.631Z,16.82
2022-10-01T02:47:19.814Z,16.92
2022-10-01T02:49:50.945Z,16.88
2022-10-01T02:52:29.841Z,16.71
2022-10-01T02:55:04.921Z,16.75
2022-10-01T02:57:34.749Z,16.54
2022-10-01T03:00:08.594Z,16.62
2022-10-01T03:02:39.756Z,16.73
2022-10-01T03:05:10.358Z,16.69
2022-10-01T03:07:40.895Z,16.46
2022-10-01T03:10:12.448Z,16.67
2022-10-01T03:12:45.149Z,16.76
2022-10-01T03:15:16.317Z,16.69
2022-10-01T03:17:47.973Z,16.68
2022-10-01T03:20:17.746Z,16.79
2022-10-01T03:22:48.994Z,16.59
2022-10-01T03:25:18.936Z,16.55
2022-10-01T03:27:49.657Z,16.75
2022-10-01T03:30:20.193Z,16.77
2022-10-01T03:32:51.374Z,16.71
2022-10-01T03:35:21.290Z,16.60
2022-10-01T03:37:50.983Z,16.42
2022-10-01T03:40:20.641Z,16.59
2022-10-01T03:42:51.134Z,16.63
2022-10-01T03:45:20.919Z,16.65
2022-10-01T03:47:54.479Z,16.58
2022-10-01T03:50:24.425Z,16.51
2022-10-01T03:52:54.176Z,16.27
2022-10-01T03:55:25.310Z,16.40
2022-10-01T03:57:55.005Z,16.59
2022-10-01T04:00:24.713Z,16.54
2022-10-01T04:02:56.569Z,16.40
2022-10-01T04:05:26.376Z,16.44
2022-10-01T04:07:56.402Z,16.47
2022-10-01T04:10:26.152Z,16.68
2022-10-01T04:12:57.034Z,16.67
2022-10-01T04:15:27.977Z,16.54
2022-10-01T04:17:59.147Z,16.51
2022-10-01T04:20:29.017Z,16.63
2022-10-01T04:22:58.762Z,16.72
2022-10-01T04:25:29.427Z,16.74
2022-10-01T04:28:01.116Z,16.69
2022-10-01T04:30:32.856Z,16.56
2022-10-01T04:33:04.840Z,16.79
2022-10-01T04:35:35.186Z,16.82
2022-10-01T04:38:06.376Z,16.94
2022-10-01T04:40:37.421Z,16.92
2022-10-01T04:43:09.634Z,17.01
2022-10-01T04:45:39.516Z,17.04
2022-10-01T04:48:14.036Z,16.76
2022-10-01T04:50:43.843Z,16.69
2022-10-01T04:53:13.582Z,16.79
2022-10-01T04:55:43.809Z,17.10
2022-10-01T04:58:13.588Z,16.95
2022-10-01T05:00:43.399Z,16.86
2022-10-01T05:03:14.574Z,17.17
2022-10-01T05:05:44.546Z,17.22
2022-10-01T05:08:14.519Z,17.44
2022-10-01T05:10:44.399Z,17.57
2022-10-01T05:13:14.645Z,17.71
2022-10-01T05:15:45.506Z,17.77
2022-10-01T05:18:16.793Z,17.84
2022-10-01T05:20:46.536Z,17.90
2022-10-01T05:23:16.324Z,18.03
2022-10-01T05:25:46.902Z,18.12
2022-10-01T05:28:21.970Z,18.21
2022-10-01T05:30:52.300Z,18.26
2022-10-01T05:33:23.440Z,18.26
2022-10-01T05:35:53.618Z,18.37
2022-10-01T05:38:24.093Z,18.62
2022-10-01T05:40:54.069Z,18.69
2022-10-01T05:43:25.554Z,18.75
2022-10-01T05:45:55.792Z,18.78
2022-10-01T05:48:27.033Z,18.73
2022-10-01T05:50:57.181Z,18.73
2022-10-01T05:53:28.696Z,18.68
2022-10-01T05:56:00.249Z,18.69
2022-10-01T05:58:30.284Z,18.71
2022-10-01T06:01:00.580Z,18.44
2022-10-01T06:03:32.040Z,18.61
2022-10-01T06:06:02.143Z,18.80
2022-10-01T06:08:32.128Z,18.84
2022-10-01T06:11:02.894Z,18.98
2022-10-01T06:13:33.246Z,19.02
2022-10-01T06:16:04.533Z,19.08
2022-10-01T06:18:37.057Z,19.11
2022-10-01T06:21:07.176Z,19.07
2022-10-01T06:23:37.622Z,19.08
2022-10-01T06:26:08.795Z,19.12
2022-10-01T06:28:38.558Z,19.14
2022-10-01T06:31:08.331Z,19.20
2022-10-01T06:33:39.800Z,19.36
2022-10-01T06:36:09.654Z,19.42
2022-10-01T06:38:39.574Z,19.47
2022-10-01T06:41:10.468Z,19.56
2022-10-01T06:43:40.251Z,19.65
2022-10-01T06:46:10.564Z,19.66
2022-10-01T06:48:42.009Z,19.67
2022-10-01T06:51:12.532Z,19.61
2022-10-01T06:53:42.338Z,19.57
2022-10-01T06:56:12.306Z,19.66
2022-10-01T06:58:42.564Z,19.71
2022-10-01T07:01:12.862Z,19.78
2022-10-01T07:03:44.254Z,19.89
2022-10-01T07:06:14.031Z,19.89
2022-10-01T07:08:43.745Z,19.90
2022-10-01T07:11:13.852Z,20.01
2022-10-01T07:13:43.751Z,20.12
2022-10-01T07:16:13.826Z,20.16
2022-10-01T07:18:45.471Z,20.23
2022-10-01T07:21:16.597Z,20.32
2022-10-01T07:23:46.496Z,20.30
2022-10-01T07:26:16.348Z,20.46
2022-10-01T07:28:46.672Z,20.48
2022-10-01T07:31:16.585Z,20.55
2022-10-01T07:33:48.529Z,20.60
2022-10-01T07:36:18.282Z,20.62
2022-10-01T07:38:50.952Z,20.69
2022-10-01T07:41:20.984Z,20.66
2022-10-01T07:43:51.078Z,20.60
2022-10-01T07:46:21.058Z,20.74
2022-10-01T07:48:52.230Z,20.80
2022-10-01T07:51:22.172Z,20.81
2022-10-01T07:53:51.980Z,21.02
2022-10-01T07:56:22.464Z,21.18
2022-10-01T07:58:55.967Z,21.16
2022-10-01T08:01:26.351Z,21.28
2022-10-01T08:03:58.405Z,21.39
2022-10-01T08:06:28.453Z,21.46
2022-10-01T08:08:58.281Z,21.51
2022-10-01T08:11:28.100Z,21.60
2022-10-01T08:13:57.960Z,21.66
2022-10-01T08:16:30.191Z,21.69
2022-10-01T08:19:01.582Z,21.82
2022-10-01T08:21:31.634Z,21.85
2022-10-01T08:24:02.162Z,21.96
2022-10-01T08:26:32.621Z,22.02
2022-10-01T08:29:02.799Z,22.06
2022-10-01T08:31:32.946Z,22.05
2022-10-01T08:34:04.340Z,22.17
2022-10-01T08:36:35.767Z,22.27
2022-10-01T08:39:06.038Z,22.37
2022-10-01T08:41:49.630Z,22.42
2022-10-01T08:44:21.823Z,22.54
2022-10-01T08:46:53.688Z,22.62
2022-10-01T08:49:29.981Z,22.50
2022-10-01T08:52:04.701Z,22.69
2022-10-01T08:54:39.945Z,22.63
2022-10-01T08:57:14.873Z,22.73
2022-10-01T08:59:47.276Z,22.97
2022-10-01T09:02:22.071Z,23.06
2022-10-01T09:05:01.261Z,23.12
2022-10-01T09:08:03.686Z,23.18
2022-10-01T09:10:44.473Z,23.06
2022-10-01T09:13:39.808Z,23.20
2022-10-01T09:16:19.685Z,23.44
2022-10-01T09:19:01.612Z,23.50
2022-10-01T09:21:48.524Z,23.66
2022-10-01T09:24:38.404Z,23.67
2022-10-01T09:27:15.217Z,23.54
2022-10-01T09:29:50.510Z,23.67
2022-10-01T09:32:25.726Z,23.71
2022-10-01T09:34:57.222Z,23.82
2022-10-01T09:37:39.519Z,23.77
2022-10-01T09:40:16.296Z,23.60
2022-10-01T09:42:47.767Z,23.62
2022-10-01T09:45:19.498Z,23.64
2022-10-01T09:47:52.641Z,23.56
2022-10-01T09:50:32.024Z,23.42
2022-10-01T09:53:04.251Z,23.51
2022-10-01T09:55:39.129Z,23.67
2022-10-01T09:58:14.353Z,23.87
2022-10-01T10:00:45.324Z,23.89
2022-10-01T10:03:24.485Z,24.06
2022-10-01T10:05:55.083Z,24.02
2022-10-01T10:08:29.882Z,23.64
2022-10-01T10:11:02.395Z,23.99
2022-10-01T10:13:35.056Z,24.07
2022-10-01T10:16:11.696Z,24.11
2022-10-01T10:18:42.502Z,24.29
2022-10-01T10:21:19.453Z,24.52
2022-10-01T10:23:53.513Z,24.68
2022-10-01T10:26:32.081Z,24.67
2022-10-01T10:29:03.911Z,24.63
2022-10-01T10:31:40.302Z,24.90
2022-10-01T10:34:17.171Z,24.85
2022-10-01T10:36:48.707Z,24.90
2022-10-01T10:39:24.482Z,24.81
2022-10-01T10:41:56.074Z,24.95
2022-10-01T10:44:30.260Z,25.03
2022-10-01T10:47:02.840Z,24.97
2022-10-01T10:49:34.612Z,25.07
2022-10-01T10:52:20.096Z,24.82
2022-10-01T10:54:52.495Z,24.58
2022-10-01T10:57:27.950Z,24.55
2022-10-01T10:59:59.976Z,24.80
2022-10-01T11:02:31.992Z,24.90
2022-10-01T11:05:06.754Z,25.06
2022-10-01T11:07:36.648Z,24.90
2022-10-01T11:10:24.542Z,25.11
2022-10-01T11:13:08.233Z,25.34
2022-10-01T11:15:53.380Z,25.39
2022-10-01T11:18:41.583Z,25.33
2022-10-01T11:21:23.536Z,25.18
2022-10-01T11:24:14.275Z,25.00
2022-10-01T11:26:54.313Z,25.30
2022-10-01T11:29:39.040Z,25.23
2022-10-01T11:32:23.479Z,25.35
2022-10-01T11:35:19.831Z,25.65
2022-10-01T11:38:01.716Z,25.68
2022-10-01T11:40:38.227Z,25.68
2022-10-01T11:43:18.075Z,25.63
2022-10-01T11:45:53.088Z,25.78
2022-10-01T11:48:29.877Z,25.72
2022-10-01T11:51:05.498Z,25.59
2022-10-01T11:53:40.700Z,25.57
2022-10-01T11:56:36.930Z,25.69
2022-10-01T11:59:13.387Z,25.69
2022-10-01T12:01:48.875Z,25.61
2022-10-01T12:04:32.918Z,25.50
2022-10-01T12:07:11.821Z,25.40
2022-10-01T12:09:51.672Z,25.36
2022-10-01T12:12:26.267Z,25.41
2022-10-01T12:15:07.005Z,25.42
2022-10-01T12:17:43.876Z,25.48
2022-10-01T12:20:24.648Z,25.41
2022-10-01T12:22:56.389Z,25.34
2022-10-01T12:25:32.402Z,25.40
2022-10-01T12:28:08.801Z,25.41
2022-10-01T12:30:47.260Z,25.39
2022-10-01T12:33:51.278Z,25.45
2022-10-01T12:36:28.855Z,25.29
2022-10-01T12:39:11.368Z,25.27
2022-10-01T12:41:52.061Z,25.31
2022-10-01T12:44:45.816Z,25.26
2022-10-01T12:47:28.456Z,25.18
2022-10-01T12:50:06.375Z,25.08
2022-10-01T12:52:45.125Z,25.19
2022-10-01T12:55:29.443Z,25.04
2022-10-01T12:58:07.916Z,25.01
2022-10-01T13:00:43.980Z,24.99
2022-10-01T13:03:46.282Z,24.98
2022-10-01T13:06:27.912Z,25.02
2022-10-01T13:09:08.323Z,24.94
2022-10-01T13:12:03.145Z,24.88
2022-10-01T13:14:36.027Z,24.67
2022-10-01T13:17:14.605Z,24.87
2022-10-01T13:19:51.731Z,24.89
2022-10-01T13:22:34.162Z,24.77
2022-10-01T13:25:22.588Z,24.76
2022-10-01T13:27:57.419Z,24.66
2022-10-01T13:30:35.599Z,24.65
2022-10-01T13:33:06.194Z,24.71
2022-10-01T13:35:40.989Z,24.64
2022-10-01T13:38:15.748Z,24.67
2022-10-01T13:40:46.300Z,24.69
2022-10-01T13:43:19.210Z,24.71
2022-10-01T13:45:50.990Z,24.73
2022-10-01T13:48:23.666Z,24.68
2022-10-01T13:51:05.162Z,24.70
2022-10-01T13:53:38.074Z,24.55
2022-10-01T13:56:09.459Z,24.52
2022-10-01T13:58:40.788Z,24.51
2022-10-01T14:01:30.374Z,24.37
2022-10-01T14:04:08.054Z,24.29
2022-10-01T14:06:48.166Z,24.20
2022-10-01T14:09:23.871Z,24.10
2022-10-01T14:12:14.577Z,24.10
2022-10-01T14:15:09.552Z,24.22
2022-10-01T14:17:39.883Z,24.03
2022-10-01T14:20:17.789Z,23.96
2022-10-01T14:23:03.850Z,23.84
2022-10-01T14:25:45.178Z,23.92
2022-10-01T14:28:42.011Z,23.89
2022-10-01T14:31:19.644Z,23.91
2022-10-01T14:34:16.351Z,23.89
2022-10-01T14:36:49.269Z,23.81
2022-10-01T14:39:22.493Z,23.83
2022-10-01T14:41:54.318Z,23.81
2022-10-01T14:44:27.338Z,23.70
2022-10-01T14:46:58.990Z,23.70
2022-10-01T14:49:30.938Z,23.55
2022-10-01T14:52:03.683Z,23.63
2022-10-01T14:54:43.729Z,23.72
2022-10-01T14:57:20.907Z,23.70
2022-10-01T14:59:50.794Z,23.62
2022-10-01T15:02:22.593Z,23.59
2022-10-01T15:04:56.273Z,23.57
2022-10-01T15:07:29.198Z,23.56
2022-10-01T15:10:09.008Z,23.53
2022-10-01T15:12:41.443Z,23.52
2022-10-01T15:15:20.527Z,23.54
2022-10-01T15:17:51.244Z,23.50
2022-10-01T15:20:21.239Z,23.47
2022-10-01T15:22:58.988Z,23.47
2022-10-01T15:25:32.919Z,23.44
2022-10-01T15:28:02.813Z,23.44
2022-10-01T15:30:37.091Z,23.37
2022-10-01T15:33:10.204Z,23.33
2022-10-01T15:35:40.589Z,23.32
2022-10-01T15:38:12.263Z,23.25
2022-10-01T15:40:43.647Z,23.23
2022-10-01T15:43:23.973Z,23.23
2022-10-01T15:46:18.317Z,23.14
2022-10-01T15:48:48.187Z,23.10
2022-10-01T15:51:20.237Z,23.05
2022-10-01T15:53:49.921Z,22.98
2022-10-01T15:56:23.829Z,22.95
2022-10-01T15:58:54.880Z,22.90
2022-10-01T16:01:26.079Z,22.86
2022-10-01T16:03:57.303Z,22.83
2022-10-01T16:06:29.240Z,22.73
2022-10-01T16:09:06.915Z,22.68
2022-10-01T16:11:51.908Z,22.65
2022-10-01T16:14:30.681Z,22.59
2022-10-01T16:17:33.618Z,22.56
2022-10-01T16:20:24.411Z,22.50
2022-10-01T16:23:17.936Z,22.45
2022-10-01T16:25:47.899Z,22.41
2022-10-01T16:28:27.345Z,22.40
2022-10-01T16:30:57.008Z,22.36
2022-10-01T16:33:26.916Z,22.29
2022-10-01T16:36:09.094Z,22.30
2022-10-01T16:38:39.982Z,22.26
2022-10-01T16:41:10.563Z,22.25
2022-10-01T16:43:40.325Z,22.22
2022-10-01T16:46:09.965Z,22.19
2022-10-01T16:48:39.772Z,22.18
2022-10-01T16:51:09.257Z,22.13
2022-10-01T16:53:42.785Z,22.15
2022-10-01T16:56:12.428Z,22.11
2022-10-01T16:58:43.144Z,22.09
2022-10-01T17:01:14.699Z,22.07
2022-10-01T17:03:44.980Z,22.05
2022-10-01T17:06:14.961Z,22.03
2022-10-01T17:08:45.907Z,21.99
2022-10-01T17:11:16.343Z,21.96
2022-10-01T17:13:46.068Z,21.91
2022-10-01T17:16:15.902Z,21.86
2022-10-01T17:18:46.007Z,21.83
2022-10-01T17:21:15.709Z,21.79
2022-10-01T17:23:50.044Z,21.75
2022-10-01T17:26:22.810Z,21.73
2022-10-01T17:28:52.407Z,21.68
2022-10-01T17:31:22.038Z,21.66
2022-10-01T17:33:52.336Z,21.61
2022-10-01T17:36:22.183Z,21.61
2022-10-01T17:38:53.118Z,21.53
2022-10-01T17:41:22.611Z,21.59
2022-10-01T17:43:52.434Z,21.60
2022-10-01T17:46:22.301Z,21.58
2022-10-01T17:48:52.246Z,21.54
2022-10-01T17:51:21.790Z,21.47
2022-10-01T17:53:54.969Z,21.49
2022-10-01T17:56:24.562Z,21.42
2022-10-01T17:58:54.403Z,21.48
2022-10-01T18:01:24.017Z,21.48
2022-10-01T18:03:54.473Z,21.53
2022-10-01T18:06:24.535Z,21.59
2022-10-01T18:08:56.680Z,21.66
2022-10-01T18:11:27.628Z,21.67
2022-10-01T18:13:57.548Z,21.68
2022-10-01T18:16:28.067Z,21.72
2022-10-01T18:21:48.375Z,21.72
2022-10-01T18:24:19.452Z,21.77
2022-10-01T18:26:49.325Z,21.84
2022-10-01T18:29:20.391Z,21.82
2022-10-01T18:31:53.110Z,21.82
2022-10-01T18:34:26.436Z,21.77
2022-10-01T18:36:59.432Z,21.76
2022-10-01T18:39:34.470Z,21.81
2022-10-01T18:42:10.729Z,21.87
2022-10-01T18:44:40.342Z,21.80
2022-10-01T18:47:17.071Z,21.80
2022-10-01T18:49:55.189Z,21.85
2022-10-01T18:52:33.346Z,21.92
2022-10-01T18:55:21.100Z,21.97
2022-10-01T18:58:01.058Z,22.02
2022-10-01T19:00:36.705Z,22.03
2022-10-01T19:03:17.393Z,22.05
2022-10-01T19:05:54.620Z,22.05
2022-10-01T19:08:33.917Z,22.14
2022-10-01T19:11:17.836Z,22.23
2022-10-01T19:13:54.013Z,22.23
2022-10-01T19:16:34.031Z,22.33
2022-10-01T19:19:12.597Z,22.33
2022-10-01T19:21:46.187Z,22.45
2022-10-01T19:24:24.278Z,22.44
2022-10-01T19:26:58.978Z,22.45
2022-10-01T19:29:38.641Z,22.39
2022-10-01T19:32:12.120Z,22.33
2022-10-01T19:34:43.961Z,22.31
2022-10-01T19:37:15.950Z,22.27
2022-10-01T19:39:47.253Z,22.32
2022-10-01T19:42:21.672Z,22.32
2022-10-01T19:44:54.573Z,22.35
2022-10-01T19:47:28.665Z,22.31
2022-10-01T19:50:00.772Z,22.29
2022-10-01T19:52:39.710Z,22.29
2022-10-01T19:55:14.586Z,22.30
2022-10-01T19:57:45.865Z,22.29
2022-10-01T20:00:19.144Z,22.20
2022-10-01T20:02:54.589Z,22.18
2022-10-01T20:05:29.386Z,22.15
2022-10-01T20:08:00.888Z,22.15
2022-10-01T20:10:34.671Z,22.09
2022-10-01T20:13:12.784Z,22.04
2022-10-01T20:15:47.644Z,22.00
2022-10-01T20:18:27.766Z,21.99
2022-10-01T20:21:05.463Z,21.98
2022-10-01T20:23:40.256Z,21.89
2022-10-01T20:26:16.801Z,21.86
2022-10-01T20:28:53.685Z,21.86
2022-10-01T20:31:28.666Z,21.85
2022-10-01T20:34:03.932Z,21.81
2022-10-01T20:36:36.316Z,21.77
2022-10-01T20:39:10.657Z,21.74
2022-10-01T20:41:44.205Z,21.72
2022-10-01T20:44:18.469Z,21.69
2022-10-01T20:46:48.788Z,21.65
2022-10-01T20:49:23.268Z,21.68
2022-10-01T20:51:58.146Z,21.67
2022-10-01T20:54:32.596Z,21.65
2022-10-01T20:57:05.064Z,21.60
2022-10-01T20:59:38.924Z,21.55
2022-10-01T21:02:19.552Z,21.56
2022-10-01T21:04:52.106Z,21.53
2022-10-01T21:07:28.937Z,21.51
2022-10-01T21:09:59.674Z,21.51
2022-10-01T21:12:30.820Z,21.56
2022-10-01T21:15:02.522Z,21.57
2022-10-01T21:17:39.354Z,21.58
2022-10-01T21:20:21.025Z,21.59
2022-10-01T21:22:57.721Z,21.67
2022-10-01T21:25:32.208Z,21.62
2022-10-01T21:28:12.399Z,21.62
2022-10-01T21:30:53.725Z,21.60
2022-10-01T21:33:25.892Z,21.55
2022-10-01T21:35:58.145Z,21.51
2022-10-01T21:38:31.548Z,21.52
2022-10-01T21:41:13.152Z,21.52
2022-10-01T21:43:47.611Z,21.50
2022-10-01T21:46:22.127Z,21.61
2022-10-01T21:48:57.220Z,21.56
2022-10-01T21:51:35.427Z,21.54
2022-10-01T21:54:25.610Z,21.48
2022-10-01T21:57:03.356Z,21.47
2022-10-01T21:59:42.052Z,21.48
2022-10-01T22:02:19.529Z,21.45
2022-10-01T22:04:50.242Z,21.43
2022-10-01T22:07:24.032Z,21.42
2022-10-01T22:10:03.416Z,21.37
2022-10-01T22:12:36.229Z,21.37
2022-10-01T22:15:16.805Z,21.33
2022-10-01T22:17:50.157Z,21.30
2022-10-01T22:20:21.140Z,21.27
2022-10-01T22:22:53.179Z,21.27
2022-10-01T22:25:22.697Z,21.31
2022-10-01T22:27:54.998Z,21.27
2022-10-01T22:30:27.389Z,21.23
2022-10-01T22:33:01.294Z,21.11
2022-10-01T22:35:33.771Z,20.97
2022-10-01T22:38:06.462Z,20.94
2022-10-01T22:40:40.433Z,20.89
2022-10-01T22:43:11.075Z,20.81
2022-10-01T22:45:47.667Z,20.88
2022-10-01T22:48:28.224Z,20.89
2022-10-01T22:51:08.707Z,20.91
2022-10-01T22:53:44.253Z,20.89
2022-10-01T22:56:19.460Z,20.86
2022-10-01T22:58:59.360Z,20.78
2022-10-01T23:01:35.253Z,20.65
2022-10-01T23:04:11.811Z,20.72
2022-10-01T23:06:42.738Z,20.73
2022-10-01T23:09:14.751Z,20.73
2022-10-01T23:11:49.078Z,20.73
2022-10-01T23:14:25.609Z,20.72
2022-10-01T23:17:00.041Z,20.72
2022-10-01T23:19:36.212Z,20.68
2022-10-01T23:22:09.039Z,20.64
2022-10-01T23:24:46.120Z,20.63
2022-10-01T23:27:21.917Z,20.64
2022-10-01T23:30:00.165Z,20.62
2022-10-01T23:32:40.863Z,20.52
2022-10-01T23:35:14.399Z,20.50
2022-10-01T23:38:00.530Z,20.48
2022-10-01T23:40:32.973Z,20.43
2022-10-01T23:43:06.621Z,20.42
2022-10-01T23:45:39.218Z,20.47
2022-10-01T23:48:13.568Z,20.49
2022-10-01T23:50:49.531Z,20.38
2022-10-01T23:53:22.156Z,20.40
2022-10-01T23:56:14.547Z,20.44
2022-10-01T23:58:48.132Z,20.44
